Arvada, Wyoming
Current Conditions -  °F | °C
As of 3:53 PM on Tuesday 27 Jan 2015 (Local Time) from KGCC Reporting Station
Clear Clear  
Wind Chill: 59°   Ceiling: Unl
Heat Index: 59°   Visibility: 10mi
Dew Point: 31°   Wind: 5mph
Humidity: 35%   Direction: 270°W
Pressure: 29.9"   Gusts: NA
Location:  44.65°N, 106.13°W
Report Text: KGCC 272253Z AUTO 27004KT 10SM CLR 15/M01 A2990 RMK AO2 SLP103 T01501006 TSNO
Loading
Personal Weather Stations






























Interactive Weather Map New forecast layout! Learn more

10-Day Weather Forecast

Advertisements
Track Severe Weather on mobile